createdAt,value
2023-02-11T00:01:51.673Z,0.88
2023-02-11T00:04:21.315Z,1.14
2023-02-11T00:06:49.579Z,1.28
2023-02-11T00:09:17.892Z,0.95
2023-02-11T00:11:46.258Z,1.52
2023-02-11T00:14:14.650Z,1.21
2023-02-11T00:16:43.023Z,1.08
2023-02-11T00:19:11.416Z,1.14
2023-02-11T00:21:43.495Z,0.80
2023-02-11T00:24:11.805Z,1.26
2023-02-11T00:26:40.133Z,1.51
2023-02-11T00:29:08.615Z,1.27
2023-02-11T00:31:39.579Z,0.52
2023-02-11T00:34:08.014Z,0.97
2023-02-11T00:36:36.416Z,0.61
2023-02-11T00:39:08.893Z,0.02
2023-02-11T00:41:37.473Z,0.01
2023-02-11T00:44:06.238Z,-0.30
2023-02-11T00:46:36.859Z,-0.44
2023-02-11T00:49:05.139Z,-0.40
2023-02-11T00:51:33.530Z,-0.55
2023-02-11T00:54:03.894Z,-0.01
2023-02-11T00:56:33.978Z,0.25
2023-02-11T00:59:02.304Z,0.76
2023-02-11T01:01:30.666Z,0.87
2023-02-11T01:03:59.007Z,0.11
2023-02-11T01:06:27.346Z,0.37
2023-02-11T01:08:55.919Z,-0.04
2023-02-11T01:11:24.193Z,-0.36
2023-02-11T01:13:54.170Z,0.27
2023-02-11T01:16:23.414Z,0.20
2023-02-11T01:18:53.402Z,0.09
2023-02-11T01:21:21.720Z,0.04
2023-02-11T01:23:51.965Z,0.16
2023-02-11T01:26:20.532Z,0.83
2023-02-11T01:28:48.926Z,1.08
2023-02-11T01:31:18.739Z,-0.06
2023-02-11T01:33:47.175Z,-0.08
2023-02-11T01:36:15.525Z,0.12
2023-02-11T01:38:44.589Z,-0.02
2023-02-11T01:41:15.693Z,-0.15
2023-02-11T01:43:45.719Z,-0.36
2023-02-11T01:46:27.132Z,-0.87
2023-02-11T01:48:58.370Z,-0.62
2023-02-11T01:51:32.511Z,-0.69
2023-02-11T01:54:20.740Z,-0.66
2023-02-11T01:57:10.512Z,-0.58
2023-02-11T01:59:47.794Z,-0.52
2023-02-11T02:02:22.521Z,-0.03
2023-02-11T02:04:54.804Z,0.64
2023-02-11T02:07:29.835Z,0.66
2023-02-11T02:10:04.112Z,1.07
2023-02-11T02:12:32.489Z,0.32
2023-02-11T02:15:25.692Z,0.17
2023-02-11T02:18:01.905Z,0.16
2023-02-11T02:20:56.987Z,0.33
2023-02-11T02:23:59.603Z,0.87
2023-02-11T02:27:03.607Z,0.55
2023-02-11T02:30:03.619Z,0.81
2023-02-11T02:32:48.267Z,0.68
2023-02-11T02:35:27.026Z,0.38
2023-02-11T02:38:00.694Z,0.66
2023-02-11T02:40:33.411Z,0.70
2023-02-11T02:43:03.930Z,0.42
2023-02-11T02:45:32.260Z,0.09
2023-02-11T02:48:01.981Z,-0.01
2023-02-11T02:50:33.790Z,-0.27
2023-02-11T02:53:21.466Z,0.17
2023-02-11T02:56:05.388Z,0.56
2023-02-11T02:59:22.966Z,-0.14
2023-02-11T03:02:02.588Z,-0.36
2023-02-11T03:04:40.488Z,-0.16
2023-02-11T03:07:18.980Z,0.18
2023-02-11T03:09:52.922Z,-0.49
2023-02-11T03:12:23.137Z,-0.63
2023-02-11T03:14:53.065Z,-0.23
2023-02-11T03:17:22.974Z,0.48
2023-02-11T03:19:53.001Z,-0.33
2023-02-11T03:22:27.515Z,-0.67
2023-02-11T03:24:57.317Z,-1.07
2023-02-11T03:27:30.078Z,0.45
2023-02-11T03:30:06.367Z,-0.67
2023-02-11T03:32:39.940Z,-0.81
2023-02-11T03:35:16.000Z,-0.90
2023-02-11T03:37:49.824Z,-1.02
2023-02-11T03:40:21.993Z,-1.32
2023-02-11T03:42:54.603Z,-0.89
2023-02-11T03:45:25.066Z,-0.77
2023-02-11T03:47:57.856Z,-0.70
2023-02-11T03:50:29.931Z,-0.80
2023-02-11T03:52:59.619Z,-0.56
2023-02-11T03:55:30.242Z,-0.43
2023-02-11T03:57:58.585Z,0.03
2023-02-11T04:00:31.154Z,0.39
2023-02-11T04:02:59.492Z,0.83
2023-02-11T04:05:29.276Z,1.23
2023-02-11T04:07:57.624Z,0.40
2023-02-11T04:10:26.168Z,1.53
2023-02-11T04:12:54.457Z,0.85
2023-02-11T04:15:25.049Z,2.04
2023-02-11T04:17:53.474Z,1.67
2023-02-11T04:20:21.979Z,1.85
2023-02-11T04:22:51.664Z,1.00
2023-02-11T04:25:20.077Z,0.88
2023-02-11T04:27:48.709Z,0.32
2023-02-11T04:30:17.131Z,0.40
2023-02-11T04:32:47.717Z,0.16
2023-02-11T04:35:16.037Z,0.85
2023-02-11T04:37:44.286Z,0.45
2023-02-11T04:40:14.153Z,0.37
2023-02-11T04:42:42.477Z,0.96
2023-02-11T04:45:11.012Z,1.38
2023-02-11T04:47:39.294Z,1.73
2023-02-11T04:50:07.936Z,0.80
2023-02-11T04:52:36.292Z,1.79
2023-02-11T04:55:04.806Z,1.83
2023-02-11T04:57:34.521Z,2.27
2023-02-11T05:00:02.898Z,1.06
2023-02-11T05:02:31.234Z,1.99
2023-02-11T05:04:59.517Z,1.80
2023-02-11T05:07:27.991Z,1.97
2023-02-11T05:09:56.265Z,1.91
2023-02-11T05:12:24.754Z,2.17
2023-02-11T05:14:54.438Z,1.67
2023-02-11T05:17:22.775Z,1.26
2023-02-11T05:19:51.095Z,1.13
2023-02-11T05:22:19.760Z,1.19
2023-02-11T05:24:48.036Z,1.03
2023-02-11T05:27:16.331Z,1.07
2023-02-11T05:29:44.579Z,2.57
2023-02-11T05:32:16.340Z,1.12
2023-02-11T05:34:44.830Z,0.77
2023-02-11T05:37:15.374Z,0.84
2023-02-11T05:39:43.714Z,0.80
2023-02-11T05:42:12.052Z,0.81
2023-02-11T05:44:40.896Z,0.39
2023-02-11T05:47:09.313Z,0.28
2023-02-11T05:49:38.937Z,0.56
2023-02-11T05:52:07.218Z,0.77
2023-02-11T05:54:35.563Z,0.38
2023-02-11T05:57:03.929Z,0.56
2023-02-11T05:59:32.225Z,0.46
2023-02-11T06:02:00.503Z,1.07
2023-02-11T06:04:28.744Z,1.19
2023-02-11T06:06:58.391Z,1.15
2023-02-11T06:09:27.054Z,2.10
2023-02-11T06:11:55.374Z,2.10
2023-02-11T06:14:23.803Z,1.93
2023-02-11T06:16:52.099Z,1.85
2023-02-11T06:19:20.430Z,1.72
2023-02-11T06:21:48.766Z,1.59
2023-02-11T06:24:38.311Z,1.54
2023-02-11T06:27:07.158Z,1.67
2023-02-11T06:29:35.549Z,1.44
2023-02-11T06:32:04.448Z,1.76
2023-02-11T06:34:33.196Z,1.67
2023-02-11T06:37:01.619Z,2.24
2023-02-11T06:39:31.414Z,1.63
2023-02-11T06:42:00.020Z,1.79
2023-02-11T06:44:28.442Z,1.76
2023-02-11T06:46:56.729Z,1.73
2023-02-11T06:49:25.087Z,2.10
2023-02-11T06:51:55.796Z,2.32
2023-02-11T06:54:24.255Z,2.19
2023-02-11T06:56:53.994Z,2.83
2023-02-11T06:59:22.389Z,3.47
2023-02-11T07:01:51.099Z,3.71
2023-02-11T07:04:19.507Z,3.28
2023-02-11T07:06:47.846Z,3.10
2023-02-11T07:09:16.325Z,2.61
2023-02-11T07:11:44.669Z,2.17
2023-02-11T07:14:14.494Z,2.97
2023-02-11T07:16:42.892Z,2.22
2023-02-11T07:19:11.596Z,2.41
2023-02-11T07:21:40.176Z,3.00
2023-02-11T07:24:11.041Z,2.37
2023-02-11T07:26:39.869Z,1.92
2023-02-11T07:29:08.263Z,2.03
2023-02-11T07:31:37.985Z,2.58
2023-02-11T07:34:06.303Z,2.78
2023-02-11T07:36:34.589Z,2.53
2023-02-11T07:39:02.962Z,2.77
2023-02-11T07:41:31.282Z,3.89
2023-02-11T07:43:59.617Z,4.40
2023-02-11T07:46:28.751Z,4.83
2023-02-11T07:48:58.559Z,4.58
2023-02-11T07:51:28.882Z,3.61
2023-02-11T07:53:59.345Z,3.76
2023-02-11T07:56:28.721Z,3.39
2023-02-11T07:59:00.212Z,4.29
2023-02-11T08:01:29.217Z,3.32
2023-02-11T08:04:00.493Z,3.70
2023-02-11T08:06:32.272Z,3.55
2023-02-11T08:09:05.984Z,3.53
2023-02-11T08:11:34.692Z,4.20
2023-02-11T08:14:03.101Z,4.10
2023-02-11T08:16:33.154Z,4.91
2023-02-11T08:19:07.983Z,4.94
2023-02-11T08:21:36.366Z,5.45
2023-02-11T08:24:05.365Z,5.05
2023-02-11T08:26:35.499Z,3.82
2023-02-11T08:29:08.585Z,4.12
2023-02-11T08:31:38.800Z,3.91
2023-02-11T08:34:09.962Z,5.21
2023-02-11T08:36:39.938Z,4.00
2023-02-11T08:39:19.329Z,4.11
2023-02-11T08:41:49.789Z,5.15
2023-02-11T08:44:18.966Z,6.03
2023-02-11T08:46:47.972Z,5.57
2023-02-11T08:49:18.214Z,6.29
2023-02-11T08:51:47.103Z,5.98
2023-02-11T08:54:16.448Z,6.08
2023-02-11T08:56:45.175Z,6.29
2023-02-11T08:59:17.678Z,5.78
2023-02-11T09:01:47.178Z,4.99
2023-02-11T09:04:17.285Z,4.83
2023-02-11T09:06:46.019Z,4.94
2023-02-11T09:09:16.266Z,4.99
2023-02-11T09:11:46.109Z,5.41
2023-02-11T09:14:18.009Z,6.37
2023-02-11T09:16:46.465Z,4.85
2023-02-11T09:19:15.333Z,4.92
2023-02-11T09:21:45.207Z,5.24
2023-02-11T09:24:13.551Z,5.61
2023-02-11T09:26:44.577Z,5.71
2023-02-11T09:29:13.158Z,6.51
2023-02-11T09:31:42.077Z,5.89
2023-02-11T09:34:11.902Z,6.59
2023-02-11T09:36:42.840Z,7.52
2023-02-11T09:39:15.124Z,7.55
2023-02-11T09:42:00.200Z,8.04
2023-02-11T09:44:30.692Z,7.57
2023-02-11T09:47:01.734Z,8.56
2023-02-11T09:49:38.051Z,7.98
2023-02-11T09:52:09.406Z,8.19
2023-02-11T09:54:50.668Z,7.88
2023-02-11T09:57:28.308Z,8.77
2023-02-11T09:59:58.395Z,8.78
2023-02-11T10:02:37.956Z,8.65
2023-02-11T10:05:19.872Z,8.61
2023-02-11T10:07:57.083Z,8.60
2023-02-11T10:10:45.174Z,8.46
2023-02-11T10:13:45.312Z,8.94
2023-02-11T10:16:29.605Z,9.43
2023-02-11T10:19:14.718Z,8.75
2023-02-11T10:21:52.884Z,8.41
2023-02-11T10:24:21.813Z,8.26
2023-02-11T10:26:53.384Z,8.50
2023-02-11T10:29:36.070Z,9.09
2023-02-11T10:32:08.564Z,8.99
2023-02-11T10:34:42.067Z,8.75
2023-02-11T10:37:13.999Z,8.88
2023-02-11T10:39:42.686Z,9.25
2023-02-11T10:42:14.884Z,9.32
2023-02-11T10:44:49.932Z,9.64
2023-02-11T10:47:22.160Z,9.36
2023-02-11T10:49:50.911Z,9.14
2023-02-11T10:52:24.124Z,9.96
2023-02-11T10:55:01.966Z,9.53
2023-02-11T10:57:36.467Z,9.82
2023-02-11T11:00:24.536Z,10.25
2023-02-11T11:02:56.151Z,9.98
2023-02-11T11:05:30.724Z,10.04
2023-02-11T11:08:01.481Z,9.56
2023-02-11T11:10:43.205Z,9.95
2023-02-11T11:13:28.017Z,9.53
2023-02-11T11:16:10.237Z,9.62
2023-02-11T11:18:39.388Z,9.80
2023-02-11T11:21:13.644Z,9.75
2023-02-11T11:23:49.417Z,9.90
2023-02-11T11:26:18.992Z,9.72
2023-02-11T11:28:59.899Z,9.97
2023-02-11T11:31:31.547Z,10.23
2023-02-11T11:34:02.665Z,10.46
2023-02-11T11:36:37.625Z,10.79
2023-02-11T11:39:21.940Z,10.95
2023-02-11T11:41:52.517Z,11.09
2023-02-11T11:44:31.847Z,10.21
2023-02-11T11:47:26.333Z,10.31
2023-02-11T11:50:18.520Z,10.77
2023-02-11T11:52:55.944Z,10.35
2023-02-11T11:55:28.613Z,10.30
2023-02-11T11:57:56.996Z,11.11
2023-02-11T12:00:34.997Z,10.64
2023-02-11T12:03:36.270Z,10.61
2023-02-11T12:06:18.025Z,10.82
2023-02-11T12:08:58.087Z,10.20
2023-02-11T12:11:36.039Z,10.21
2023-02-11T12:14:18.324Z,10.76
2023-02-11T12:16:58.215Z,10.26
2023-02-11T12:19:56.179Z,9.73
2023-02-11T12:22:35.164Z,10.39
2023-02-11T12:25:22.711Z,10.33
2023-02-11T12:28:01.411Z,10.70
2023-02-11T12:30:45.505Z,10.66
2023-02-11T12:33:23.977Z,10.64
2023-02-11T12:36:00.813Z,11.07
2023-02-11T12:38:47.864Z,11.16
2023-02-11T12:41:51.583Z,10.87
2023-02-11T12:44:30.611Z,10.53
2023-02-11T12:47:10.131Z,10.27
2023-02-11T12:49:50.777Z,10.59
2023-02-11T12:52:32.554Z,10.71
2023-02-11T12:55:05.958Z,11.14
2023-02-11T12:57:37.668Z,11.19
2023-02-11T13:00:14.305Z,10.55
2023-02-11T13:02:51.031Z,11.17
2023-02-11T13:05:27.128Z,10.67
2023-02-11T13:07:59.699Z,10.46
2023-02-11T13:10:32.896Z,10.62
2023-02-11T13:13:18.697Z,10.45
2023-02-11T13:15:52.161Z,10.84
2023-02-11T13:18:48.271Z,10.58
2023-02-11T13:22:01.416Z,10.72
2023-02-11T13:24:37.964Z,11.15
2023-02-11T13:27:17.069Z,10.78
2023-02-11T13:30:19.981Z,10.65
2023-02-11T13:33:19.773Z,10.58
2023-02-11T13:36:10.749Z,10.94
2023-02-11T13:38:40.792Z,10.95
2023-02-11T13:41:21.106Z,11.19
2023-02-11T13:44:00.255Z,11.41
2023-02-11T13:46:49.767Z,10.98
2023-02-11T13:49:24.291Z,10.95
2023-02-11T13:51:54.413Z,11.10
2023-02-11T13:54:36.682Z,11.14
2023-02-11T13:57:26.374Z,11.26
2023-02-11T13:59:56.681Z,11.30
2023-02-11T14:02:46.386Z,10.34
2023-02-11T14:05:40.230Z,10.61
2023-02-11T14:08:33.465Z,11.30
2023-02-11T14:11:08.368Z,11.13
2023-02-11T14:13:38.285Z,11.42
2023-02-11T14:16:09.368Z,11.89
2023-02-11T14:18:40.013Z,11.87
2023-02-11T14:21:14.171Z,11.18
2023-02-11T14:23:43.046Z,11.93
2023-02-11T14:26:35.081Z,11.68
2023-02-11T14:29:14.088Z,11.84
2023-02-11T14:31:46.351Z,11.35
2023-02-11T14:34:34.799Z,11.69
2023-02-11T14:37:16.033Z,11.10
2023-02-11T14:39:58.362Z,11.20
2023-02-11T14:42:31.023Z,10.98
2023-02-11T14:45:05.526Z,11.17
2023-02-11T14:47:41.312Z,11.13
2023-02-11T14:50:18.469Z,11.24
2023-02-11T14:52:47.398Z,11.16
2023-02-11T14:55:24.728Z,10.87
2023-02-11T14:58:08.716Z,11.09
2023-02-11T15:00:37.163Z,11.56
2023-02-11T15:03:05.505Z,11.74
2023-02-11T15:05:33.900Z,11.54
2023-02-11T15:08:07.898Z,11.71
2023-02-11T15:10:43.872Z,11.82
2023-02-11T15:13:20.858Z,11.13
2023-02-11T15:15:54.126Z,11.27
2023-02-11T15:18:25.140Z,11.74
2023-02-11T15:20:53.979Z,11.74
2023-02-11T15:23:25.664Z,11.60
2023-02-11T15:25:56.183Z,11.36
2023-02-11T15:28:28.781Z,11.06
2023-02-11T15:30:59.469Z,10.88
2023-02-11T15:33:30.127Z,10.62
2023-02-11T15:35:59.444Z,10.57
2023-02-11T15:38:29.754Z,10.37
2023-02-11T15:41:00.790Z,10.91
2023-02-11T15:43:44.482Z,11.09
2023-02-11T15:46:17.242Z,10.38
2023-02-11T15:48:48.500Z,10.39
2023-02-11T15:51:22.861Z,10.44
2023-02-11T15:54:01.712Z,10.86
2023-02-11T15:56:33.040Z,10.41
2023-02-11T15:59:13.880Z,10.40
2023-02-11T16:01:58.335Z,10.24
2023-02-11T16:04:28.802Z,10.06
2023-02-11T16:06:57.804Z,10.30
2023-02-11T16:09:33.482Z,10.64
2023-02-11T16:12:04.584Z,10.40
2023-02-11T16:14:39.814Z,10.15
2023-02-11T16:17:13.373Z,10.27
2023-02-11T16:19:45.635Z,10.38
2023-02-11T16:22:20.028Z,10.10
2023-02-11T16:24:51.037Z,9.83
2023-02-11T16:27:24.824Z,9.85
2023-02-11T16:29:54.643Z,10.30
2023-02-11T16:32:25.821Z,9.96
2023-02-11T16:34:57.912Z,9.93
2023-02-11T16:37:27.032Z,10.72
2023-02-11T16:39:55.970Z,10.19
2023-02-11T16:42:24.474Z,10.28
2023-02-11T16:44:54.198Z,10.33
2023-02-11T16:47:27.593Z,10.10
2023-02-11T16:50:00.235Z,10.33
2023-02-11T16:52:31.309Z,10.13
2023-02-11T16:55:05.126Z,10.02
2023-02-11T16:57:33.767Z,9.85
2023-02-11T17:00:10.042Z,9.89
2023-02-11T17:03:00.638Z,10.12
2023-02-11T17:05:54.305Z,10.39
2023-02-11T17:08:29.966Z,10.16
2023-02-11T17:10:58.491Z,10.17
2023-02-11T17:13:26.885Z,9.91
2023-02-11T17:15:58.749Z,10.29
2023-02-11T17:18:29.256Z,9.89
2023-02-11T17:21:01.361Z,10.21
2023-02-11T17:23:32.488Z,10.35
2023-02-11T17:26:00.866Z,10.16
2023-02-11T17:28:32.982Z,10.16
2023-02-11T17:31:08.628Z,9.67
2023-02-11T17:33:37.775Z,9.90
2023-02-11T17:36:07.615Z,10.05
2023-02-11T17:38:36.676Z,10.07
2023-02-11T17:41:14.823Z,10.06
2023-02-11T17:43:43.402Z,9.77
2023-02-11T17:46:14.198Z,10.02
2023-02-11T17:48:42.657Z,9.84
2023-02-11T17:51:24.889Z,10.24
2023-02-11T17:53:54.154Z,10.05
2023-02-11T17:56:22.582Z,10.20
2023-02-11T17:59:04.375Z,10.08
2023-02-11T18:01:35.352Z,10.82
2023-02-11T18:04:04.303Z,10.29
2023-02-11T18:06:33.790Z,10.26
2023-02-11T18:09:16.729Z,10.35
2023-02-11T18:11:45.114Z,10.32
2023-02-11T18:14:13.642Z,10.70
2023-02-11T18:16:45.112Z,10.72
2023-02-11T18:19:14.028Z,10.10
2023-02-11T18:21:42.458Z,9.97
2023-02-11T18:24:10.892Z,10.53
2023-02-11T18:26:39.296Z,10.56
2023-02-11T18:29:07.822Z,10.79
2023-02-11T18:31:36.896Z,10.80
2023-02-11T18:34:08.351Z,10.13
2023-02-11T18:36:36.758Z,9.61
2023-02-11T18:39:05.860Z,10.65
2023-02-11T18:41:34.767Z,10.30
2023-02-11T18:44:04.502Z,10.59
2023-02-11T18:46:35.240Z,9.93
2023-02-11T18:49:06.705Z,9.97
2023-02-11T18:51:36.455Z,9.42
2023-02-11T18:54:05.064Z,9.37
2023-02-11T18:56:33.385Z,9.86
2023-02-11T18:59:02.490Z,9.94
2023-02-11T19:01:33.661Z,9.45
2023-02-11T19:04:06.256Z,9.60
2023-02-11T19:06:37.826Z,9.54
2023-02-11T19:09:09.749Z,9.31
2023-02-11T19:11:50.325Z,8.97
2023-02-11T19:14:22.745Z,9.02
2023-02-11T19:16:54.316Z,9.76
2023-02-11T19:19:26.885Z,9.04
2023-02-11T19:21:57.596Z,8.65
2023-02-11T19:24:26.897Z,9.08
2023-02-11T19:26:58.332Z,9.19
2023-02-11T19:29:27.472Z,9.17
2023-02-11T19:31:56.400Z,9.56
2023-02-11T19:34:25.268Z,9.51
2023-02-11T19:36:54.346Z,9.86
2023-02-11T19:39:24.807Z,9.29
2023-02-11T19:42:03.498Z,9.41
2023-02-11T19:44:32.023Z,9.33
2023-02-11T19:47:01.119Z,9.73
2023-02-11T19:49:31.431Z,9.60
2023-02-11T19:51:59.732Z,9.81
2023-02-11T19:54:30.456Z,10.11
2023-02-11T19:56:59.704Z,10.17
2023-02-11T19:59:30.393Z,9.53
2023-02-11T20:02:01.688Z,9.96
2023-02-11T20:04:32.057Z,10.18
2023-02-11T20:07:02.516Z,9.29
2023-02-11T20:09:32.275Z,9.63
2023-02-11T20:12:03.872Z,9.82
2023-02-11T20:14:33.530Z,9.79
2023-02-11T20:17:01.883Z,9.90
2023-02-11T20:19:30.642Z,9.32
2023-02-11T20:22:01.646Z,9.39
2023-02-11T20:24:29.970Z,9.54
2023-02-11T20:26:59.643Z,9.91
2023-02-11T20:29:31.744Z,9.86
2023-02-11T20:32:00.365Z,9.65
2023-02-11T20:34:29.398Z,9.50
2023-02-11T20:36:57.915Z,9.56
2023-02-11T20:39:27.031Z,9.35
2023-02-11T20:41:56.533Z,9.15
2023-02-11T20:44:33.094Z,9.69
2023-02-11T20:47:01.421Z,9.43
2023-02-11T20:49:29.820Z,9.49
2023-02-11T20:51:58.502Z,9.54
2023-02-11T20:54:26.998Z,9.42
2023-02-11T20:56:56.153Z,9.39
2023-02-11T20:59:25.154Z,9.08
2023-02-11T21:01:57.055Z,8.79
2023-02-11T21:04:27.978Z,9.03
2023-02-11T21:06:59.942Z,8.35
2023-02-11T21:09:30.238Z,8.29
2023-02-11T21:11:59.182Z,8.12
2023-02-11T21:14:31.419Z,8.39
2023-02-11T21:17:02.437Z,8.89
2023-02-11T21:19:39.986Z,9.67
2023-02-11T21:22:08.488Z,9.30
2023-02-11T21:24:36.921Z,8.37
2023-02-11T21:27:06.863Z,8.64
2023-02-11T21:29:43.007Z,9.46
2023-02-11T21:32:19.015Z,9.33
2023-02-11T21:34:47.535Z,9.43
2023-02-11T21:37:15.871Z,9.53
2023-02-11T21:39:44.182Z,8.40
2023-02-11T21:42:12.732Z,8.36
2023-02-11T21:44:41.199Z,9.27
2023-02-11T21:47:11.998Z,9.35
2023-02-11T21:49:43.983Z,8.83
2023-02-11T21:52:12.579Z,8.20
2023-02-11T21:54:40.912Z,8.76
2023-02-11T21:57:09.281Z,9.01
2023-02-11T22:13:02.279Z,8.08
2023-02-11T22:15:30.738Z,8.36
2023-02-11T22:17:59.129Z,8.67
2023-02-11T22:20:27.666Z,8.65
2023-02-11T22:22:56.057Z,9.10
2023-02-11T22:25:24.361Z,9.46
2023-02-11T22:27:52.720Z,9.00
2023-02-11T22:30:22.871Z,9.48
2023-02-11T22:32:51.433Z,8.68
2023-02-11T22:35:19.763Z,8.51
2023-02-11T22:37:48.226Z,8.73
2023-02-11T22:40:16.816Z,8.44
2023-02-11T22:42:45.126Z,8.55
2023-02-11T22:45:13.662Z,8.55
2023-02-11T22:47:43.388Z,8.91
2023-02-11T22:50:12.347Z,8.98
2023-02-11T22:52:40.808Z,8.30
2023-02-11T22:55:09.654Z,8.37
2023-02-11T22:57:38.081Z,8.54
2023-02-11T23:00:09.866Z,8.76
2023-02-11T23:02:38.458Z,8.33
2023-02-11T23:05:08.403Z,8.64
2023-02-11T23:07:36.819Z,8.21
2023-02-11T23:10:05.794Z,8.65
2023-02-11T23:12:34.248Z,9.36
2023-02-11T23:15:04.966Z,8.62
2023-02-11T23:17:33.617Z,8.76
2023-02-11T23:20:02.253Z,9.12
2023-02-11T23:22:32.612Z,8.08
2023-02-11T23:25:01.103Z,7.92
2023-02-11T23:27:29.433Z,8.75
2023-02-11T23:29:57.985Z,8.88
2023-02-11T23:32:26.593Z,8.82
2023-02-11T23:34:54.948Z,7.83
2023-02-11T23:37:23.415Z,7.57
2023-02-11T23:39:53.164Z,7.82
2023-02-11T23:42:21.500Z,8.23
2023-02-11T23:44:49.804Z,9.01
2023-02-11T23:47:18.138Z,8.86
2023-02-11T23:49:46.525Z,9.35
2023-02-11T23:52:15.321Z,8.29
2023-02-11T23:54:45.499Z,8.66
2023-02-11T23:57:15.150Z,8.85
2023-02-11T23:59:43.438Z,9.37
